sensor_id;sensor_type;location;lat;lon;timestamp;P1;durP1;ratioP1;P2;durP2;ratioP2
30420;SDS011;17218;54.070;10.012;2023-08-17T00:01:06;2.17;;;1.17;;
30420;SDS011;17218;54.070;10.012;2023-08-17T00:03:33;2.60;;;1.10;;
30420;SDS011;17218;54.070;10.012;2023-08-17T00:05:59;1.02;;;0.93;;
30420;SDS011;17218;54.070;10.012;2023-08-17T00:08:26;3.05;;;1.40;;
30420;SDS011;17218;54.070;10.012;2023-08-17T00:10:52;2.20;;;1.30;;
30420;SDS011;17218;54.070;10.012;2023-08-17T00:13:20;2.50;;;1.10;;
30420;SDS011;17218;54.070;10.012;2023-08-17T00:15:47;2.35;;;1.00;;
30420;SDS011;17218;54.070;10.012;2023-08-17T00:18:13;1.35;;;1.00;;
30420;SDS011;17218;54.070;10.012;2023-08-17T00:20:40;2.15;;;1.60;;
30420;SDS011;17218;54.070;10.012;2023-08-17T00:23:07;1.98;;;1.08;;
30420;SDS011;17218;54.070;10.012;2023-08-17T00:25:33;2.35;;;1.45;;
30420;SDS011;17218;54.070;10.012;2023-08-17T00:28:00;1.10;;;1.00;;
30420;SDS011;17218;54.070;10.012;2023-08-17T00:30:27;2.38;;;1.00;;
30420;SDS011;17218;54.070;10.012;2023-08-17T00:32:54;3.38;;;1.17;;
30420;SDS011;17218;54.070;10.012;2023-08-17T00:35:20;2.47;;;0.93;;
30420;SDS011;17218;54.070;10.012;2023-08-17T00:37:47;1.10;;;1.00;;
30420;SDS011;17218;54.070;10.012;2023-08-17T00:40:13;1.73;;;1.00;;
30420;SDS011;17218;54.070;10.012;2023-08-17T00:42:40;2.28;;;1.10;;
30420;SDS011;17218;54.070;10.012;2023-08-17T00:45:07;2.38;;;0.95;;
30420;SDS011;17218;54.070;10.012;2023-08-17T00:47:35;2.08;;;1.00;;
30420;SDS011;17218;54.070;10.012;2023-08-17T00:50:02;2.80;;;1.30;;
30420;SDS011;17218;54.070;10.012;2023-08-17T00:52:29;3.42;;;1.48;;
30420;SDS011;17218;54.070;10.012;2023-08-17T00:54:58;2.35;;;1.10;;
30420;SDS011;17218;54.070;10.012;2023-08-17T00:57:26;4.53;;;1.58;;
30420;SDS011;17218;54.070;10.012;2023-08-17T00:59:53;2.00;;;1.50;;
30420;SDS011;17218;54.070;10.012;2023-08-17T01:02:19;2.38;;;1.20;;
30420;SDS011;17218;54.070;10.012;2023-08-17T01:04:47;2.50;;;1.25;;
30420;SDS011;17218;54.070;10.012;2023-08-17T01:07:14;3.10;;;1.70;;
30420;SDS011;17218;54.070;10.012;2023-08-17T01:09:40;5.72;;;2.78;;
30420;SDS011;17218;54.070;10.012;2023-08-17T01:12:11;2.67;;;1.15;;
30420;SDS011;17218;54.070;10.012;2023-08-17T01:14:47;3.78;;;1.20;;
30420;SDS011;17218;54.070;10.012;2023-08-17T01:17:22;3.30;;;1.40;;
30420;SDS011;17218;54.070;10.012;2023-08-17T01:19:53;2.45;;;1.33;;
30420;SDS011;17218;54.070;10.012;2023-08-17T01:22:20;2.20;;;1.63;;
30420;SDS011;17218;54.070;10.012;2023-08-17T01:24:49;4.93;;;1.20;;
30420;SDS011;17218;54.070;10.012;2023-08-17T01:27:15;2.50;;;1.40;;
30420;SDS011;17218;54.070;10.012;2023-08-17T01:29:41;2.97;;;1.77;;
30420;SDS011;17218;54.070;10.012;2023-08-17T01:32:09;3.88;;;1.40;;
30420;SDS011;17218;54.070;10.012;2023-08-17T01:34:48;3.55;;;1.55;;
30420;SDS011;17218;54.070;10.012;2023-08-17T01:37:18;2.45;;;1.75;;
30420;SDS011;17218;54.070;10.012;2023-08-17T01:39:47;2.08;;;1.30;;
30420;SDS011;17218;54.070;10.012;2023-08-17T01:42:21;4.25;;;1.55;;
30420;SDS011;17218;54.070;10.012;2023-08-17T01:44:50;1.98;;;1.33;;
30420;SDS011;17218;54.070;10.012;2023-08-17T01:47:20;4.20;;;1.48;;
30420;SDS011;17218;54.070;10.012;2023-08-17T01:49:47;3.90;;;1.52;;
30420;SDS011;17218;54.070;10.012;2023-08-17T01:52:13;2.03;;;1.40;;
30420;SDS011;17218;54.070;10.012;2023-08-17T01:54:40;2.88;;;1.60;;
30420;SDS011;17218;54.070;10.012;2023-08-17T01:57:08;3.30;;;1.35;;
30420;SDS011;17218;54.070;10.012;2023-08-17T01:59:34;1.75;;;1.33;;
30420;SDS011;17218;54.070;10.012;2023-08-17T02:02:01;1.88;;;1.58;;
30420;SDS011;17218;54.070;10.012;2023-08-17T02:04:27;1.48;;;1.30;;
30420;SDS011;17218;54.070;10.012;2023-08-17T02:06:54;1.67;;;1.08;;
30420;SDS011;17218;54.070;10.012;2023-08-17T02:09:20;3.42;;;1.45;;
30420;SDS011;17218;54.070;10.012;2023-08-17T02:11:47;2.85;;;1.48;;
30420;SDS011;17218;54.070;10.012;2023-08-17T02:14:14;1.88;;;1.25;;
30420;SDS011;17218;54.070;10.012;2023-08-17T02:16:41;1.83;;;1.25;;
30420;SDS011;17218;54.070;10.012;2023-08-17T02:19:08;3.90;;;1.98;;
30420;SDS011;17218;54.070;10.012;2023-08-17T02:21:34;6.85;;;1.30;;
30420;SDS011;17218;54.070;10.012;2023-08-17T02:24:01;3.78;;;1.42;;
30420;SDS011;17218;54.070;10.012;2023-08-17T02:26:28;1.40;;;1.30;;
30420;SDS011;17218;54.070;10.012;2023-08-17T02:28:55;3.15;;;1.50;;
30420;SDS011;17218;54.070;10.012;2023-08-17T02:31:23;2.35;;;1.30;;
30420;SDS011;17218;54.070;10.012;2023-08-17T02:33:50;2.72;;;1.23;;
30420;SDS011;17218;54.070;10.012;2023-08-17T02:36:16;3.83;;;1.30;;
30420;SDS011;17218;54.070;10.012;2023-08-17T02:38:43;1.58;;;1.48;;
30420;SDS011;17218;54.070;10.012;2023-08-17T02:41:09;2.08;;;1.33;;
30420;SDS011;17218;54.070;10.012;2023-08-17T02:43:36;3.28;;;1.75;;
30420;SDS011;17218;54.070;10.012;2023-08-17T02:46:02;2.35;;;1.70;;
30420;SDS011;17218;54.070;10.012;2023-08-17T02:48:33;2.00;;;1.45;;
30420;SDS011;17218;54.070;10.012;2023-08-17T02:50:59;2.55;;;1.35;;
30420;SDS011;17218;54.070;10.012;2023-08-17T02:53:26;2.00;;;1.80;;
30420;SDS011;17218;54.070;10.012;2023-08-17T02:55:52;4.78;;;1.30;;
30420;SDS011;17218;54.070;10.012;2023-08-17T02:58:19;3.03;;;1.73;;
30420;SDS011;17218;54.070;10.012;2023-08-17T03:00:46;2.28;;;1.48;;
30420;SDS011;17218;54.070;10.012;2023-08-17T03:03:12;3.33;;;1.60;;
30420;SDS011;17218;54.070;10.012;2023-08-17T03:05:40;2.28;;;1.50;;
30420;SDS011;17218;54.070;10.012;2023-08-17T03:08:06;4.38;;;1.70;;
30420;SDS011;17218;54.070;10.012;2023-08-17T03:10:33;2.53;;;1.50;;
30420;SDS011;17218;54.070;10.012;2023-08-17T03:13:00;3.53;;;1.58;;
30420;SDS011;17218;54.070;10.012;2023-08-17T03:15:26;3.10;;;1.50;;
30420;SDS011;17218;54.070;10.012;2023-08-17T03:24:37;2.95;;;1.77;;
30420;SDS011;17218;54.070;10.012;2023-08-17T03:27:04;2.90;;;1.30;;
30420;SDS011;17218;54.070;10.012;2023-08-17T03:29:30;4.45;;;1.77;;
30420;SDS011;17218;54.070;10.012;2023-08-17T03:31:57;2.58;;;1.80;;
30420;SDS011;17218;54.070;10.012;2023-08-17T03:34:23;3.20;;;1.52;;
30420;SDS011;17218;54.070;10.012;2023-08-17T03:36:50;3.13;;;1.98;;
30420;SDS011;17218;54.070;10.012;2023-08-17T03:39:16;2.75;;;1.60;;
30420;SDS011;17218;54.070;10.012;2023-08-17T03:41:44;2.63;;;1.73;;
30420;SDS011;17218;54.070;10.012;2023-08-17T03:44:10;2.05;;;1.77;;
30420;SDS011;17218;54.070;10.012;2023-08-17T03:46:38;2.95;;;1.65;;
30420;SDS011;17218;54.070;10.012;2023-08-17T03:49:05;3.47;;;1.60;;
30420;SDS011;17218;54.070;10.012;2023-08-17T03:51:32;3.78;;;1.90;;
30420;SDS011;17218;54.070;10.012;2023-08-17T03:53:58;4.28;;;1.77;;
30420;SDS011;17218;54.070;10.012;2023-08-17T03:56:24;1.83;;;1.33;;
30420;SDS011;17218;54.070;10.012;2023-08-17T03:58:53;1.60;;;1.50;;
30420;SDS011;17218;54.070;10.012;2023-08-17T04:01:19;5.28;;;1.80;;
30420;SDS011;17218;54.070;10.012;2023-08-17T04:03:46;2.25;;;1.45;;
30420;SDS011;17218;54.070;10.012;2023-08-17T04:06:12;1.85;;;1.50;;
30420;SDS011;17218;54.070;10.012;2023-08-17T04:08:39;1.55;;;1.20;;
30420;SDS011;17218;54.070;10.012;2023-08-17T04:11:05;2.42;;;1.38;;
30420;SDS011;17218;54.070;10.012;2023-08-17T04:13:32;2.05;;;1.30;;
30420;SDS011;17218;54.070;10.012;2023-08-17T04:16:00;3.10;;;1.33;;
30420;SDS011;17218;54.070;10.012;2023-08-17T04:18:26;3.47;;;1.90;;
30420;SDS011;17218;54.070;10.012;2023-08-17T04:20:53;5.00;;;1.52;;
30420;SDS011;17218;54.070;10.012;2023-08-17T04:23:19;3.47;;;1.92;;
30420;SDS011;17218;54.070;10.012;2023-08-17T04:25:46;3.10;;;1.30;;
30420;SDS011;17218;54.070;10.012;2023-08-17T04:28:13;2.08;;;1.13;;
30420;SDS011;17218;54.070;10.012;2023-08-17T04:30:39;3.78;;;1.27;;
30420;SDS011;17218;54.070;10.012;2023-08-17T04:33:07;1.27;;;1.10;;
30420;SDS011;17218;54.070;10.012;2023-08-17T04:35:34;4.80;;;1.35;;
30420;SDS011;17218;54.070;10.012;2023-08-17T04:38:00;5.05;;;2.08;;
30420;SDS011;17218;54.070;10.012;2023-08-17T04:40:27;1.75;;;1.08;;
30420;SDS011;17218;54.070;10.012;2023-08-17T04:42:53;2.63;;;1.55;;
30420;SDS011;17218;54.070;10.012;2023-08-17T04:45:20;3.88;;;1.35;;
30420;SDS011;17218;54.070;10.012;2023-08-17T04:47:46;3.05;;;1.30;;
30420;SDS011;17218;54.070;10.012;2023-08-17T04:50:14;1.13;;;1.02;;
30420;SDS011;17218;54.070;10.012;2023-08-17T04:52:41;2.92;;;1.23;;
30420;SDS011;17218;54.070;10.012;2023-08-17T04:55:08;2.80;;;1.20;;
30420;SDS011;17218;54.070;10.012;2023-08-17T04:57:34;1.27;;;0.95;;
30420;SDS011;17218;54.070;10.012;2023-08-17T05:00:01;1.55;;;1.20;;
30420;SDS011;17218;54.070;10.012;2023-08-17T05:02:28;6.22;;;0.90;;
30420;SDS011;17218;54.070;10.012;2023-08-17T05:04:55;1.77;;;1.13;;
30420;SDS011;17218;54.070;10.012;2023-08-17T05:07:24;4.70;;;1.23;;
30420;SDS011;17218;54.070;10.012;2023-08-17T05:09:50;3.72;;;1.30;;
30420;SDS011;17218;54.070;10.012;2023-08-17T05:12:17;1.02;;;0.93;;
30420;SDS011;17218;54.070;10.012;2023-08-17T05:14:44;4.03;;;1.10;;
30420;SDS011;17218;54.070;10.012;2023-08-17T05:17:10;1.05;;;0.95;;
30420;SDS011;17218;54.070;10.012;2023-08-17T05:19:37;1.95;;;1.05;;
30420;SDS011;17218;54.070;10.012;2023-08-17T05:22:05;1.70;;;0.95;;
30420;SDS011;17218;54.070;10.012;2023-08-17T05:24:33;1.58;;;1.00;;
30420;SDS011;17218;54.070;10.012;2023-08-17T05:26:59;1.42;;;1.10;;
30420;SDS011;17218;54.070;10.012;2023-08-17T05:29:26;2.08;;;0.90;;
30420;SDS011;17218;54.070;10.012;2023-08-17T05:31:52;3.65;;;1.30;;
30420;SDS011;17218;54.070;10.012;2023-08-17T05:34:20;2.25;;;1.13;;
30420;SDS011;17218;54.070;10.012;2023-08-17T05:36:49;1.15;;;1.05;;
30420;SDS011;17218;54.070;10.012;2023-08-17T05:39:21;1.25;;;0.93;;
30420;SDS011;17218;54.070;10.012;2023-08-17T05:41:49;1.58;;;1.00;;
30420;SDS011;17218;54.070;10.012;2023-08-17T05:44:16;1.67;;;0.80;;
30420;SDS011;17218;54.070;10.012;2023-08-17T05:46:43;1.67;;;0.95;;
30420;SDS011;17218;54.070;10.012;2023-08-17T05:49:09;2.78;;;1.00;;
30420;SDS011;17218;54.070;10.012;2023-08-17T05:51:36;0.75;;;0.75;;
30420;SDS011;17218;54.070;10.012;2023-08-17T05:54:03;2.15;;;0.90;;
30420;SDS011;17218;54.070;10.012;2023-08-17T05:56:31;1.10;;;0.80;;
30420;SDS011;17218;54.070;10.012;2023-08-17T05:58:58;1.13;;;1.02;;
30420;SDS011;17218;54.070;10.012;2023-08-17T06:01:25;3.70;;;0.80;;
30420;SDS011;17218;54.070;10.012;2023-08-17T06:03:52;0.95;;;0.85;;
30420;SDS011;17218;54.070;10.012;2023-08-17T06:06:18;1.23;;;0.93;;
30420;SDS011;17218;54.070;10.012;2023-08-17T06:08:45;2.05;;;0.95;;
30420;SDS011;17218;54.070;10.012;2023-08-17T06:11:13;1.15;;;0.82;;
30420;SDS011;17218;54.070;10.012;2023-08-17T06:13:40;2.40;;;0.95;;
30420;SDS011;17218;54.070;10.012;2023-08-17T06:16:09;0.80;;;0.80;;
30420;SDS011;17218;54.070;10.012;2023-08-17T06:21:14;1.40;;;1.00;;
30420;SDS011;17218;54.070;10.012;2023-08-17T06:23:41;2.30;;;1.20;;
30420;SDS011;17218;54.070;10.012;2023-08-17T06:26:08;4.55;;;1.15;;
30420;SDS011;17218;54.070;10.012;2023-08-17T06:28:34;1.90;;;0.95;;
30420;SDS011;17218;54.070;10.012;2023-08-17T06:31:01;2.08;;;1.20;;
30420;SDS011;17218;54.070;10.012;2023-08-17T06:33:28;2.05;;;0.95;;
30420;SDS011;17218;54.070;10.012;2023-08-17T06:35:55;1.13;;;0.90;;
30420;SDS011;17218;54.070;10.012;2023-08-17T06:38:21;1.17;;;1.08;;
30420;SDS011;17218;54.070;10.012;2023-08-17T06:40:48;1.55;;;1.30;;
30420;SDS011;17218;54.070;10.012;2023-08-17T06:43:14;2.20;;;1.10;;
30420;SDS011;17218;54.070;10.012;2023-08-17T06:45:41;1.73;;;1.10;;
30420;SDS011;17218;54.070;10.012;2023-08-17T06:48:07;1.58;;;1.00;;
30420;SDS011;17218;54.070;10.012;2023-08-17T06:50:35;1.33;;;1.02;;
30420;SDS011;17218;54.070;10.012;2023-08-17T06:53:02;1.17;;;0.80;;
30420;SDS011;17218;54.070;10.012;2023-08-17T06:55:28;1.27;;;1.17;;
30420;SDS011;17218;54.070;10.012;2023-08-17T06:57:56;4.15;;;1.25;;
30420;SDS011;17218;54.070;10.012;2023-08-17T07:00:23;0.70;;;0.70;;
30420;SDS011;17218;54.070;10.012;2023-08-17T07:02:50;3.03;;;0.88;;
30420;SDS011;17218;54.070;10.012;2023-08-17T07:05:16;1.30;;;1.20;;
30420;SDS011;17218;54.070;10.012;2023-08-17T07:07:45;1.20;;;0.80;;
30420;SDS011;17218;54.070;10.012;2023-08-17T07:10:11;4.45;;;1.13;;
30420;SDS011;17218;54.070;10.012;2023-08-17T07:12:38;2.72;;;1.10;;
30420;SDS011;17218;54.070;10.012;2023-08-17T07:15:05;1.75;;;1.20;;
30420;SDS011;17218;54.070;10.012;2023-08-17T07:17:32;0.98;;;0.88;;
30420;SDS011;17218;54.070;10.012;2023-08-17T07:20:01;1.10;;;0.85;;
30420;SDS011;17218;54.070;10.012;2023-08-17T07:22:28;1.00;;;0.80;;
30420;SDS011;17218;54.070;10.012;2023-08-17T07:24:56;3.75;;;1.02;;
30420;SDS011;17218;54.070;10.012;2023-08-17T07:27:22;4.65;;;0.93;;
30420;SDS011;17218;54.070;10.012;2023-08-17T07:29:49;2.53;;;0.93;;
30420;SDS011;17218;54.070;10.012;2023-08-17T07:32:15;2.00;;;1.10;;
30420;SDS011;17218;54.070;10.012;2023-08-17T07:34:42;5.43;;;1.42;;
30420;SDS011;17218;54.070;10.012;2023-08-17T07:37:09;3.08;;;1.20;;
30420;SDS011;17218;54.070;10.012;2023-08-17T07:39:36;1.10;;;0.98;;
30420;SDS011;17218;54.070;10.012;2023-08-17T07:42:04;1.80;;;1.15;;
30420;SDS011;17218;54.070;10.012;2023-08-17T07:44:31;2.22;;;1.00;;
30420;SDS011;17218;54.070;10.012;2023-08-17T07:46:58;3.17;;;1.73;;
30420;SDS011;17218;54.070;10.012;2023-08-17T07:49:24;1.77;;;0.93;;
30420;SDS011;17218;54.070;10.012;2023-08-17T07:51:51;2.78;;;1.17;;
30420;SDS011;17218;54.070;10.012;2023-08-17T07:54:17;2.15;;;1.27;;
30420;SDS011;17218;54.070;10.012;2023-08-17T07:56:44;1.20;;;1.10;;
30420;SDS011;17218;54.070;10.012;2023-08-17T07:59:11;2.08;;;1.20;;
30420;SDS011;17218;54.070;10.012;2023-08-17T08:01:38;1.35;;;1.25;;
30420;SDS011;17218;54.070;10.012;2023-08-17T08:04:05;3.00;;;1.25;;
30420;SDS011;17218;54.070;10.012;2023-08-17T08:06:32;1.67;;;1.05;;
30420;SDS011;17218;54.070;10.012;2023-08-17T08:08:58;1.25;;;1.15;;
30420;SDS011;17218;54.070;10.012;2023-08-17T08:11:25;1.80;;;1.30;;
30420;SDS011;17218;54.070;10.012;2023-08-17T08:13:55;2.88;;;1.20;;
30420;SDS011;17218;54.070;10.012;2023-08-17T08:16:22;2.10;;;1.00;;
30420;SDS011;17218;54.070;10.012;2023-08-17T08:18:49;3.35;;;1.13;;
30420;SDS011;17218;54.070;10.012;2023-08-17T08:21:15;1.67;;;1.40;;
30420;SDS011;17218;54.070;10.012;2023-08-17T08:23:42;14.27;;;2.05;;
30420;SDS011;17218;54.070;10.012;2023-08-17T08:26:08;3.55;;;1.10;;
30420;SDS011;17218;54.070;10.012;2023-08-17T08:28:35;1.73;;;1.20;;
30420;SDS011;17218;54.070;10.012;2023-08-17T08:31:01;1.42;;;1.30;;
30420;SDS011;17218;54.070;10.012;2023-08-17T08:33:30;2.95;;;1.40;;
30420;SDS011;17218;54.070;10.012;2023-08-17T08:35:56;1.08;;;0.98;;
30420;SDS011;17218;54.070;10.012;2023-08-17T08:38:23;3.78;;;1.23;;
30420;SDS011;17218;54.070;10.012;2023-08-17T08:40:50;1.73;;;1.20;;
30420;SDS011;17218;54.070;10.012;2023-08-17T08:43:17;2.00;;;1.10;;
30420;SDS011;17218;54.070;10.012;2023-08-17T08:45:43;1.50;;;1.40;;
30420;SDS011;17218;54.070;10.012;2023-08-17T08:48:11;2.05;;;1.20;;
30420;SDS011;17218;54.070;10.012;2023-08-17T08:50:40;2.45;;;1.10;;
30420;SDS011;17218;54.070;10.012;2023-08-17T08:53:08;2.88;;;1.10;;
30420;SDS011;17218;54.070;10.012;2023-08-17T08:55:41;2.97;;;1.52;;
30420;SDS011;17218;54.070;10.012;2023-08-17T08:58:13;3.67;;;1.40;;
30420;SDS011;17218;54.070;10.012;2023-08-17T09:00:41;1.77;;;1.20;;
30420;SDS011;17218;54.070;10.012;2023-08-17T09:03:08;1.65;;;1.42;;
30420;SDS011;17218;54.070;10.012;2023-08-17T09:05:35;2.28;;;1.15;;
30420;SDS011;17218;54.070;10.012;2023-08-17T09:08:05;3.05;;;1.63;;
30420;SDS011;17218;54.070;10.012;2023-08-17T09:10:34;2.85;;;1.38;;
30420;SDS011;17218;54.070;10.012;2023-08-17T09:13:01;5.57;;;1.80;;
30420;SDS011;17218;54.070;10.012;2023-08-17T09:15:28;3.92;;;1.80;;
30420;SDS011;17218;54.070;10.012;2023-08-17T09:17:54;1.73;;;1.63;;
30420;SDS011;17218;54.070;10.012;2023-08-17T09:20:34;2.72;;;1.52;;
30420;SDS011;17218;54.070;10.012;2023-08-17T09:23:02;2.67;;;1.65;;
30420;SDS011;17218;54.070;10.012;2023-08-17T09:25:35;1.90;;;1.65;;
30420;SDS011;17218;54.070;10.012;2023-08-17T09:28:06;2.58;;;1.58;;
30420;SDS011;17218;54.070;10.012;2023-08-17T09:30:34;3.08;;;1.70;;
30420;SDS011;17218;54.070;10.012;2023-08-17T09:33:15;2.55;;;1.48;;
30420;SDS011;17218;54.070;10.012;2023-08-17T09:35:42;1.48;;;1.10;;
30420;SDS011;17218;54.070;10.012;2023-08-17T09:38:10;2.30;;;1.73;;
30420;SDS011;17218;54.070;10.012;2023-08-17T09:40:36;2.80;;;1.70;;
30420;SDS011;17218;54.070;10.012;2023-08-17T09:43:03;1.48;;;1.38;;
30420;SDS011;17218;54.070;10.012;2023-08-17T09:45:30;2.75;;;1.58;;
30420;SDS011;17218;54.070;10.012;2023-08-17T09:47:58;2.35;;;1.80;;
30420;SDS011;17218;54.070;10.012;2023-08-17T09:50:24;2.05;;;1.45;;
30420;SDS011;17218;54.070;10.012;2023-08-17T09:52:52;3.33;;;1.52;;
30420;SDS011;17218;54.070;10.012;2023-08-17T09:55:21;3.20;;;1.35;;
30420;SDS011;17218;54.070;10.012;2023-08-17T09:57:48;1.77;;;1.65;;
30420;SDS011;17218;54.070;10.012;2023-08-17T10:00:15;3.28;;;1.55;;
30420;SDS011;17218;54.070;10.012;2023-08-17T10:02:41;3.15;;;1.52;;
30420;SDS011;17218;54.070;10.012;2023-08-17T10:05:11;3.67;;;1.60;;
30420;SDS011;17218;54.070;10.012;2023-08-17T10:07:38;2.67;;;1.50;;
30420;SDS011;17218;54.070;10.012;2023-08-17T10:10:09;1.55;;;1.45;;
30420;SDS011;17218;54.070;10.012;2023-08-17T10:12:37;2.50;;;1.50;;
30420;SDS011;17218;54.070;10.012;2023-08-17T10:15:10;1.90;;;1.60;;
30420;SDS011;17218;54.070;10.012;2023-08-17T10:17:38;1.60;;;1.50;;
30420;SDS011;17218;54.070;10.012;2023-08-17T10:20:10;2.05;;;1.48;;
30420;SDS011;17218;54.070;10.012;2023-08-17T10:22:39;3.30;;;1.65;;
30420;SDS011;17218;54.070;10.012;2023-08-17T10:25:17;1.63;;;1.35;;
30420;SDS011;17218;54.070;10.012;2023-08-17T10:27:47;4.00;;;1.98;;
30420;SDS011;17218;54.070;10.012;2023-08-17T10:30:16;2.70;;;1.40;;
30420;SDS011;17218;54.070;10.012;2023-08-17T10:32:43;1.58;;;1.30;;
30420;SDS011;17218;54.070;10.012;2023-08-17T10:35:11;2.20;;;1.38;;
30420;SDS011;17218;54.070;10.012;2023-08-17T10:37:39;1.48;;;1.20;;
30420;SDS011;17218;54.070;10.012;2023-08-17T10:40:06;1.35;;;1.25;;
30420;SDS011;17218;54.070;10.012;2023-08-17T10:42:34;1.70;;;1.38;;
30420;SDS011;17218;54.070;10.012;2023-08-17T10:45:03;2.60;;;1.77;;
30420;SDS011;17218;54.070;10.012;2023-08-17T10:48:00;2.50;;;1.60;;
30420;SDS011;17218;54.070;10.012;2023-08-17T10:51:02;3.08;;;1.65;;
30420;SDS011;17218;54.070;10.012;2023-08-17T10:53:33;3.25;;;1.48;;
30420;SDS011;17218;54.070;10.012;2023-08-17T10:56:04;3.13;;;1.98;;
30420;SDS011;17218;54.070;10.012;2023-08-17T10:58:33;2.13;;;1.67;;
30420;SDS011;17218;54.070;10.012;2023-08-17T11:00:59;2.78;;;1.85;;
30420;SDS011;17218;54.070;10.012;2023-08-17T11:03:26;1.58;;;1.48;;
30420;SDS011;17218;54.070;10.012;2023-08-17T11:05:55;1.70;;;1.60;;
30420;SDS011;17218;54.070;10.012;2023-08-17T11:08:23;1.85;;;1.70;;
30420;SDS011;17218;54.070;10.012;2023-08-17T11:10:57;5.60;;;1.77;;
30420;SDS011;17218;54.070;10.012;2023-08-17T11:13:27;2.22;;;1.70;;
30420;SDS011;17218;54.070;10.012;2023-08-17T11:15:54;1.58;;;1.48;;
30420;SDS011;17218;54.070;10.012;2023-08-17T11:18:21;3.40;;;1.95;;
30420;SDS011;17218;54.070;10.012;2023-08-17T11:20:48;1.98;;;1.77;;
30420;SDS011;17218;54.070;10.012;2023-08-17T11:23:17;5.57;;;1.40;;
30420;SDS011;17218;54.070;10.012;2023-08-17T11:25:44;2.72;;;1.52;;
30420;SDS011;17218;54.070;10.012;2023-08-17T11:28:11;2.58;;;1.80;;
30420;SDS011;17218;54.070;10.012;2023-08-17T11:30:39;2.00;;;1.45;;
30420;SDS011;17218;54.070;10.012;2023-08-17T11:33:07;3.30;;;1.52;;
30420;SDS011;17218;54.070;10.012;2023-08-17T11:35:34;2.83;;;1.52;;
30420;SDS011;17218;54.070;10.012;2023-08-17T11:38:01;3.30;;;1.85;;
30420;SDS011;17218;54.070;10.012;2023-08-17T11:40:32;3.38;;;1.25;;
30420;SDS011;17218;54.070;10.012;2023-08-17T11:42:59;3.03;;;1.42;;
30420;SDS011;17218;54.070;10.012;2023-08-17T11:45:26;1.70;;;1.40;;
30420;SDS011;17218;54.070;10.012;2023-08-17T11:47:52;2.13;;;1.20;;
30420;SDS011;17218;54.070;10.012;2023-08-17T11:50:19;3.58;;;1.85;;
30420;SDS011;17218;54.070;10.012;2023-08-17T11:52:46;1.55;;;1.40;;
30420;SDS011;17218;54.070;10.012;2023-08-17T11:55:15;3.13;;;1.50;;
30420;SDS011;17218;54.070;10.012;2023-08-17T11:57:45;1.60;;;1.50;;
30420;SDS011;17218;54.070;10.012;2023-08-17T12:00:16;1.88;;;1.60;;
30420;SDS011;17218;54.070;10.012;2023-08-17T12:02:46;2.05;;;1.73;;
30420;SDS011;17218;54.070;10.012;2023-08-17T12:05:13;3.63;;;1.77;;
30420;SDS011;17218;54.070;10.012;2023-08-17T12:07:40;3.35;;;1.95;;
30420;SDS011;17218;54.070;10.012;2023-08-17T12:10:07;2.42;;;1.80;;
30420;SDS011;17218;54.070;10.012;2023-08-17T12:12:36;2.63;;;1.48;;
30420;SDS011;17218;54.070;10.012;2023-08-17T12:15:06;3.15;;;1.90;;
30420;SDS011;17218;54.070;10.012;2023-08-17T12:17:33;3.05;;;1.60;;
30420;SDS011;17218;54.070;10.012;2023-08-17T12:19:59;2.28;;;1.42;;
30420;SDS011;17218;54.070;10.012;2023-08-17T12:22:26;2.05;;;1.80;;
30420;SDS011;17218;54.070;10.012;2023-08-17T12:24:53;2.15;;;1.65;;
30420;SDS011;17218;54.070;10.012;2023-08-17T12:27:21;2.00;;;1.80;;
30420;SDS011;17218;54.070;10.012;2023-08-17T12:29:48;2.15;;;1.77;;
30420;SDS011;17218;54.070;10.012;2023-08-17T12:32:17;3.30;;;1.80;;
30420;SDS011;17218;54.070;10.012;2023-08-17T12:34:44;2.60;;;1.92;;
30420;SDS011;17218;54.070;10.012;2023-08-17T12:37:12;2.63;;;1.50;;
30420;SDS011;17218;54.070;10.012;2023-08-17T12:39:44;2.28;;;1.70;;
30420;SDS011;17218;54.070;10.012;2023-08-17T12:42:11;3.00;;;1.85;;
30420;SDS011;17218;54.070;10.012;2023-08-17T12:44:37;2.28;;;1.88;;
30420;SDS011;17218;54.070;10.012;2023-08-17T12:47:04;2.45;;;1.85;;
30420;SDS011;17218;54.070;10.012;2023-08-17T12:59:35;1.52;;;1.30;;
30420;SDS011;17218;54.070;10.012;2023-08-17T13:02:01;2.22;;;1.90;;
30420;SDS011;17218;54.070;10.012;2023-08-17T13:04:28;2.33;;;2.03;;
30420;SDS011;17218;54.070;10.012;2023-08-17T13:06:55;2.15;;;1.60;;
30420;SDS011;17218;54.070;10.012;2023-08-17T13:09:22;2.75;;;1.60;;
30420;SDS011;17218;54.070;10.012;2023-08-17T13:11:48;3.03;;;1.95;;
30420;SDS011;17218;54.070;10.012;2023-08-17T13:14:15;1.90;;;1.67;;
30420;SDS011;17218;54.070;10.012;2023-08-17T13:16:43;2.53;;;2.00;;
30420;SDS011;17218;54.070;10.012;2023-08-17T13:19:09;2.58;;;1.60;;
30420;SDS011;17218;54.070;10.012;2023-08-17T13:21:36;3.20;;;1.92;;
30420;SDS011;17218;54.070;10.012;2023-08-17T13:24:02;2.55;;;2.05;;
30420;SDS011;17218;54.070;10.012;2023-08-17T13:26:29;4.88;;;2.97;;
30420;SDS011;17218;54.070;10.012;2023-08-17T13:28:56;2.55;;;2.13;;
30420;SDS011;17218;54.070;10.012;2023-08-17T13:31:22;2.33;;;2.10;;
30420;SDS011;17218;54.070;10.012;2023-08-17T13:33:50;2.30;;;2.08;;
30420;SDS011;17218;54.070;10.012;2023-08-17T13:36:17;3.60;;;2.17;;
30420;SDS011;17218;54.070;10.012;2023-08-17T13:38:44;2.42;;;1.98;;
30420;SDS011;17218;54.070;10.012;2023-08-17T13:41:10;3.15;;;2.25;;
30420;SDS011;17218;54.070;10.012;2023-08-17T13:43:37;2.17;;;1.98;;
30420;SDS011;17218;54.070;10.012;2023-08-17T13:46:03;3.05;;;2.13;;
30420;SDS011;17218;54.070;10.012;2023-08-17T13:48:30;3.95;;;1.80;;
30420;SDS011;17218;54.070;10.012;2023-08-17T13:50:58;2.20;;;2.00;;
30420;SDS011;17218;54.070;10.012;2023-08-17T13:53:24;3.15;;;1.85;;
30420;SDS011;17218;54.070;10.012;2023-08-17T13:55:51;5.75;;;2.60;;
30420;SDS011;17218;54.070;10.012;2023-08-17T13:58:18;4.05;;;1.98;;
30420;SDS011;17218;54.070;10.012;2023-08-17T14:00:44;2.78;;;2.30;;
30420;SDS011;17218;54.070;10.012;2023-08-17T14:03:11;3.35;;;2.10;;
30420;SDS011;17218;54.070;10.012;2023-08-17T14:05:37;2.67;;;2.15;;
30420;SDS011;17218;54.070;10.012;2023-08-17T14:08:06;2.85;;;2.55;;
30420;SDS011;17218;54.070;10.012;2023-08-17T14:10:32;3.33;;;2.20;;
30420;SDS011;17218;54.070;10.012;2023-08-17T14:13:01;3.85;;;2.28;;
30420;SDS011;17218;54.070;10.012;2023-08-17T14:15:27;3.65;;;2.50;;
30420;SDS011;17218;54.070;10.012;2023-08-17T14:17:54;3.88;;;2.53;;
30420;SDS011;17218;54.070;10.012;2023-08-17T14:20:22;2.53;;;2.22;;
30420;SDS011;17218;54.070;10.012;2023-08-17T14:22:52;4.20;;;2.35;;
30420;SDS011;17218;54.070;10.012;2023-08-17T14:25:20;2.85;;;2.55;;
30420;SDS011;17218;54.070;10.012;2023-08-17T14:27:47;2.40;;;2.20;;
30420;SDS011;17218;54.070;10.012;2023-08-17T14:30:16;4.55;;;2.30;;
30420;SDS011;17218;54.070;10.012;2023-08-17T14:32:43;4.78;;;3.08;;
30420;SDS011;17218;54.070;10.012;2023-08-17T14:35:09;3.47;;;2.75;;
30420;SDS011;17218;54.070;10.012;2023-08-17T14:37:36;4.95;;;2.88;;
30420;SDS011;17218;54.070;10.012;2023-08-17T14:40:02;4.50;;;3.03;;
30420;SDS011;17218;54.070;10.012;2023-08-17T14:42:32;3.42;;;2.08;;
30420;SDS011;17218;54.070;10.012;2023-08-17T14:44:59;2.65;;;2.20;;
30420;SDS011;17218;54.070;10.012;2023-08-17T14:47:25;3.67;;;3.13;;
30420;SDS011;17218;54.070;10.012;2023-08-17T14:49:53;3.10;;;2.72;;
30420;SDS011;17218;54.070;10.012;2023-08-17T14:52:22;3.75;;;2.45;;
30420;SDS011;17218;54.070;10.012;2023-08-17T14:54:51;4.38;;;2.55;;